sensor_id;sensor_type;location;lat;lon;timestamp;P1;durP1;ratioP1;P2;durP2;ratioP2
48317;SDS011;34127;47.412;9.730;2023-12-28T00:00:46;52.17;;;27.35;;
48317;SDS011;34127;47.412;9.730;2023-12-28T00:03:13;57.53;;;28.48;;
48317;SDS011;34127;47.412;9.730;2023-12-28T00:05:39;55.20;;;29.48;;
48317;SDS011;34127;47.412;9.730;2023-12-28T00:08:05;54.75;;;29.60;;
48317;SDS011;34127;47.412;9.730;2023-12-28T00:10:31;53.50;;;29.98;;
48317;SDS011;34127;47.412;9.730;2023-12-28T00:12:57;53.70;;;28.90;;
48317;SDS011;34127;47.412;9.730;2023-12-28T00:15:23;57.85;;;29.35;;
48317;SDS011;34127;47.412;9.730;2023-12-28T00:17:50;49.30;;;28.30;;
48317;SDS011;34127;47.412;9.730;2023-12-28T00:20:16;57.40;;;28.77;;
48317;SDS011;34127;47.412;9.730;2023-12-28T00:22:42;53.63;;;28.20;;
48317;SDS011;34127;47.412;9.730;2023-12-28T00:25:08;53.83;;;27.70;;
48317;SDS011;34127;47.412;9.730;2023-12-28T00:27:34;60.22;;;29.35;;
48317;SDS011;34127;47.412;9.730;2023-12-28T00:30:03;55.83;;;26.83;;
48317;SDS011;34127;47.412;9.730;2023-12-28T00:32:29;60.38;;;27.75;;
48317;SDS011;34127;47.412;9.730;2023-12-28T00:34:55;61.38;;;30.27;;
48317;SDS011;34127;47.412;9.730;2023-12-28T00:37:21;61.80;;;30.30;;
48317;SDS011;34127;47.412;9.730;2023-12-28T00:39:47;52.17;;;26.05;;
48317;SDS011;34127;47.412;9.730;2023-12-28T00:42:15;51.88;;;27.92;;
48317;SDS011;34127;47.412;9.730;2023-12-28T00:44:41;65.00;;;31.77;;
48317;SDS011;34127;47.412;9.730;2023-12-28T00:47:07;60.53;;;32.38;;
48317;SDS011;34127;47.412;9.730;2023-12-28T00:49:33;88.55;;;39.35;;
48317;SDS011;34127;47.412;9.730;2023-12-28T00:51:59;80.10;;;39.92;;
48317;SDS011;34127;47.412;9.730;2023-12-28T00:54:25;64.78;;;31.40;;
48317;SDS011;34127;47.412;9.730;2023-12-28T00:56:51;53.38;;;28.60;;
48317;SDS011;34127;47.412;9.730;2023-12-28T00:59:17;53.20;;;24.88;;
48317;SDS011;34127;47.412;9.730;2023-12-28T01:01:43;42.40;;;23.83;;
48317;SDS011;34127;47.412;9.730;2023-12-28T01:04:10;30.85;;;17.27;;
48317;SDS011;34127;47.412;9.730;2023-12-28T01:06:36;32.20;;;18.65;;
48317;SDS011;34127;47.412;9.730;2023-12-28T01:09:02;29.60;;;17.67;;
48317;SDS011;34127;47.412;9.730;2023-12-28T01:11:28;35.17;;;17.23;;
48317;SDS011;34127;47.412;9.730;2023-12-28T01:13:54;40.42;;;22.25;;
48317;SDS011;34127;47.412;9.730;2023-12-28T01:16:22;31.95;;;19.40;;
48317;SDS011;34127;47.412;9.730;2023-12-28T01:18:48;17.52;;;12.32;;
48317;SDS011;34127;47.412;9.730;2023-12-28T01:21:16;17.42;;;9.93;;
48317;SDS011;34127;47.412;9.730;2023-12-28T01:23:42;22.23;;;13.93;;
48317;SDS011;34127;47.412;9.730;2023-12-28T01:26:12;17.92;;;10.45;;
48317;SDS011;34127;47.412;9.730;2023-12-28T01:28:42;21.75;;;12.18;;
48317;SDS011;34127;47.412;9.730;2023-12-28T01:31:08;23.73;;;12.45;;
48317;SDS011;34127;47.412;9.730;2023-12-28T01:33:35;14.50;;;8.10;;
48317;SDS011;34127;47.412;9.730;2023-12-28T01:36:01;14.05;;;7.53;;
48317;SDS011;34127;47.412;9.730;2023-12-28T01:38:27;13.75;;;7.13;;
48317;SDS011;34127;47.412;9.730;2023-12-28T01:40:53;9.38;;;5.43;;
48317;SDS011;34127;47.412;9.730;2023-12-28T01:43:19;12.07;;;5.50;;
48317;SDS011;34127;47.412;9.730;2023-12-28T01:45:45;10.27;;;4.65;;
48317;SDS011;34127;47.412;9.730;2023-12-28T01:48:12;7.70;;;3.75;;
48317;SDS011;34127;47.412;9.730;2023-12-28T01:50:39;6.82;;;3.25;;
48317;SDS011;34127;47.412;9.730;2023-12-28T01:53:05;7.63;;;4.03;;
48317;SDS011;34127;47.412;9.730;2023-12-28T01:55:32;5.13;;;2.45;;
48317;SDS011;34127;47.412;9.730;2023-12-28T01:57:59;4.60;;;2.50;;
48317;SDS011;34127;47.412;9.730;2023-12-28T02:00:26;3.58;;;1.75;;
48317;SDS011;34127;47.412;9.730;2023-12-28T02:02:52;4.25;;;1.92;;
48317;SDS011;34127;47.412;9.730;2023-12-28T02:05:18;6.68;;;2.08;;
48317;SDS011;34127;47.412;9.730;2023-12-28T02:07:44;4.15;;;1.90;;
48317;SDS011;34127;47.412;9.730;2023-12-28T02:10:11;2.80;;;1.70;;
48317;SDS011;34127;47.412;9.730;2023-12-28T02:12:37;2.42;;;1.33;;
48317;SDS011;34127;47.412;9.730;2023-12-28T02:15:03;3.15;;;1.63;;
48317;SDS011;34127;47.412;9.730;2023-12-28T02:17:33;3.13;;;1.48;;
48317;SDS011;34127;47.412;9.730;2023-12-28T02:20:00;2.90;;;1.50;;
48317;SDS011;34127;47.412;9.730;2023-12-28T02:22:30;8.00;;;2.60;;
48317;SDS011;34127;47.412;9.730;2023-12-28T02:25:06;6.13;;;3.20;;
48317;SDS011;34127;47.412;9.730;2023-12-28T02:29:59;10.88;;;5.00;;
48317;SDS011;34127;47.412;9.730;2023-12-28T02:35:23;10.63;;;5.68;;
48317;SDS011;34127;47.412;9.730;2023-12-28T02:37:54;11.95;;;6.35;;
48317;SDS011;34127;47.412;9.730;2023-12-28T02:40:21;11.70;;;6.53;;
48317;SDS011;34127;47.412;9.730;2023-12-28T02:42:47;18.15;;;8.43;;
48317;SDS011;34127;47.412;9.730;2023-12-28T02:45:14;13.00;;;7.75;;
48317;SDS011;34127;47.412;9.730;2023-12-28T02:47:40;13.63;;;7.57;;
48317;SDS011;34127;47.412;9.730;2023-12-28T02:50:06;13.27;;;7.18;;
48317;SDS011;34127;47.412;9.730;2023-12-28T02:52:32;14.52;;;7.13;;
48317;SDS011;34127;47.412;9.730;2023-12-28T02:54:58;15.05;;;8.13;;
48317;SDS011;34127;47.412;9.730;2023-12-28T02:57:24;13.00;;;7.65;;
48317;SDS011;34127;47.412;9.730;2023-12-28T02:59:51;14.95;;;7.63;;
48317;SDS011;34127;47.412;9.730;2023-12-28T03:02:17;15.93;;;8.20;;
48317;SDS011;34127;47.412;9.730;2023-12-28T03:04:43;12.65;;;7.97;;
48317;SDS011;34127;47.412;9.730;2023-12-28T03:07:09;12.40;;;7.30;;
48317;SDS011;34127;47.412;9.730;2023-12-28T03:09:35;15.35;;;8.38;;
48317;SDS011;34127;47.412;9.730;2023-12-28T03:12:03;15.32;;;9.35;;
48317;SDS011;34127;47.412;9.730;2023-12-28T03:14:30;19.10;;;12.02;;
48317;SDS011;34127;47.412;9.730;2023-12-28T03:16:56;18.30;;;9.93;;
48317;SDS011;34127;47.412;9.730;2023-12-28T03:19:23;16.60;;;9.35;;
48317;SDS011;34127;47.412;9.730;2023-12-28T03:21:49;17.90;;;9.45;;
48317;SDS011;34127;47.412;9.730;2023-12-28T03:24:15;12.13;;;7.88;;
48317;SDS011;34127;47.412;9.730;2023-12-28T03:26:41;15.02;;;7.97;;
48317;SDS011;34127;47.412;9.730;2023-12-28T03:29:07;14.82;;;8.00;;
48317;SDS011;34127;47.412;9.730;2023-12-28T03:31:38;13.80;;;8.15;;
48317;SDS011;34127;47.412;9.730;2023-12-28T03:34:04;12.93;;;7.88;;
48317;SDS011;34127;47.412;9.730;2023-12-28T03:36:30;13.82;;;7.68;;
48317;SDS011;34127;47.412;9.730;2023-12-28T03:38:56;14.30;;;7.53;;
48317;SDS011;34127;47.412;9.730;2023-12-28T03:41:23;12.52;;;7.72;;
48317;SDS011;34127;47.412;9.730;2023-12-28T03:43:49;11.77;;;7.32;;
48317;SDS011;34127;47.412;9.730;2023-12-28T03:46:15;11.57;;;6.95;;
48317;SDS011;34127;47.412;9.730;2023-12-28T03:48:41;13.63;;;6.47;;
48317;SDS011;34127;47.412;9.730;2023-12-28T03:51:07;11.70;;;7.30;;
48317;SDS011;34127;47.412;9.730;2023-12-28T03:53:33;12.15;;;7.38;;
48317;SDS011;34127;47.412;9.730;2023-12-28T03:56:00;12.07;;;7.10;;
48317;SDS011;34127;47.412;9.730;2023-12-28T03:58:27;11.82;;;7.55;;
48317;SDS011;34127;47.412;9.730;2023-12-28T04:00:53;12.15;;;7.93;;
48317;SDS011;34127;47.412;9.730;2023-12-28T04:03:19;12.73;;;8.48;;
48317;SDS011;34127;47.412;9.730;2023-12-28T04:05:46;16.17;;;8.98;;
48317;SDS011;34127;47.412;9.730;2023-12-28T04:08:12;11.38;;;7.78;;
48317;SDS011;34127;47.412;9.730;2023-12-28T04:10:38;13.10;;;7.50;;
48317;SDS011;34127;47.412;9.730;2023-12-28T04:13:04;15.05;;;7.72;;
48317;SDS011;34127;47.412;9.730;2023-12-28T04:15:31;12.05;;;7.47;;
48317;SDS011;34127;47.412;9.730;2023-12-28T04:17:57;13.95;;;7.45;;
48317;SDS011;34127;47.412;9.730;2023-12-28T04:20:23;16.02;;;7.90;;
48317;SDS011;34127;47.412;9.730;2023-12-28T04:22:49;14.13;;;7.97;;
48317;SDS011;34127;47.412;9.730;2023-12-28T04:25:15;16.50;;;7.68;;
48317;SDS011;34127;47.412;9.730;2023-12-28T04:27:42;12.13;;;6.90;;
48317;SDS011;34127;47.412;9.730;2023-12-28T04:30:11;13.82;;;7.43;;
48317;SDS011;34127;47.412;9.730;2023-12-28T04:32:37;12.65;;;7.85;;
48317;SDS011;34127;47.412;9.730;2023-12-28T04:35:04;12.93;;;7.43;;
48317;SDS011;34127;47.412;9.730;2023-12-28T04:37:31;12.27;;;7.22;;
48317;SDS011;34127;47.412;9.730;2023-12-28T04:39:58;10.43;;;5.97;;
48317;SDS011;34127;47.412;9.730;2023-12-28T04:42:24;11.65;;;6.10;;
48317;SDS011;34127;47.412;9.730;2023-12-28T04:44:50;9.65;;;5.53;;
48317;SDS011;34127;47.412;9.730;2023-12-28T04:47:16;10.05;;;6.15;;
48317;SDS011;34127;47.412;9.730;2023-12-28T04:49:43;8.70;;;5.43;;
48317;SDS011;34127;47.412;9.730;2023-12-28T04:52:09;10.65;;;5.53;;
48317;SDS011;34127;47.412;9.730;2023-12-28T04:54:35;8.63;;;4.70;;
48317;SDS011;34127;47.412;9.730;2023-12-28T04:57:01;9.73;;;5.40;;
48317;SDS011;34127;47.412;9.730;2023-12-28T04:59:28;8.75;;;4.85;;
48317;SDS011;34127;47.412;9.730;2023-12-28T05:01:54;8.48;;;4.68;;
48317;SDS011;34127;47.412;9.730;2023-12-28T05:04:21;10.15;;;5.35;;
48317;SDS011;34127;47.412;9.730;2023-12-28T05:06:47;9.20;;;4.97;;
48317;SDS011;34127;47.412;9.730;2023-12-28T05:09:13;9.13;;;4.80;;
48317;SDS011;34127;47.412;9.730;2023-12-28T05:11:39;9.80;;;5.60;;
48317;SDS011;34127;47.412;9.730;2023-12-28T05:14:05;8.52;;;5.22;;
48317;SDS011;34127;47.412;9.730;2023-12-28T05:16:31;15.35;;;8.73;;
48317;SDS011;34127;47.412;9.730;2023-12-28T05:18:58;13.52;;;7.22;;
48317;SDS011;34127;47.412;9.730;2023-12-28T05:21:24;12.05;;;6.95;;
48317;SDS011;34127;47.412;9.730;2023-12-28T05:23:50;9.65;;;5.10;;
48317;SDS011;34127;47.412;9.730;2023-12-28T05:26:16;8.88;;;4.88;;
48317;SDS011;34127;47.412;9.730;2023-12-28T05:28:42;8.98;;;5.10;;
48317;SDS011;34127;47.412;9.730;2023-12-28T05:31:08;8.00;;;5.05;;
48317;SDS011;34127;47.412;9.730;2023-12-28T05:33:34;10.35;;;6.13;;
48317;SDS011;34127;47.412;9.730;2023-12-28T05:36:01;10.68;;;5.90;;
48317;SDS011;34127;47.412;9.730;2023-12-28T05:38:27;10.27;;;5.97;;
48317;SDS011;34127;47.412;9.730;2023-12-28T05:40:53;17.65;;;8.52;;
48317;SDS011;34127;47.412;9.730;2023-12-28T05:43:19;18.58;;;9.20;;
48317;SDS011;34127;47.412;9.730;2023-12-28T05:45:45;12.73;;;7.35;;
48317;SDS011;34127;47.412;9.730;2023-12-28T05:48:11;17.70;;;9.48;;
48317;SDS011;34127;47.412;9.730;2023-12-28T05:50:37;19.17;;;10.02;;
48317;SDS011;34127;47.412;9.730;2023-12-28T05:53:03;19.65;;;10.27;;
48317;SDS011;34127;47.412;9.730;2023-12-28T05:55:30;17.00;;;9.52;;
48317;SDS011;34127;47.412;9.730;2023-12-28T05:57:56;22.75;;;11.18;;
48317;SDS011;34127;47.412;9.730;2023-12-28T06:00:22;21.58;;;10.95;;
48317;SDS011;34127;47.412;9.730;2023-12-28T06:02:48;19.35;;;10.45;;
48317;SDS011;34127;47.412;9.730;2023-12-28T06:05:17;17.30;;;8.70;;
48317;SDS011;34127;47.412;9.730;2023-12-28T06:07:43;19.08;;;9.93;;
48317;SDS011;34127;47.412;9.730;2023-12-28T06:10:09;20.98;;;10.52;;
48317;SDS011;34127;47.412;9.730;2023-12-28T06:12:36;10.15;;;5.68;;
48317;SDS011;34127;47.412;9.730;2023-12-28T06:15:02;9.45;;;5.72;;
48317;SDS011;34127;47.412;9.730;2023-12-28T06:17:28;11.55;;;6.68;;
48317;SDS011;34127;47.412;9.730;2023-12-28T06:19:54;17.80;;;8.50;;
48317;SDS011;34127;47.412;9.730;2023-12-28T06:22:20;19.48;;;10.95;;
48317;SDS011;34127;47.412;9.730;2023-12-28T06:24:46;22.73;;;9.70;;
48317;SDS011;34127;47.412;9.730;2023-12-28T06:27:12;15.35;;;7.72;;
48317;SDS011;34127;47.412;9.730;2023-12-28T06:29:39;13.48;;;7.05;;
48317;SDS011;34127;47.412;9.730;2023-12-28T06:32:05;13.13;;;7.07;;
48317;SDS011;34127;47.412;9.730;2023-12-28T06:34:31;20.08;;;7.57;;
48317;SDS011;34127;47.412;9.730;2023-12-28T06:36:57;13.90;;;7.60;;
48317;SDS011;34127;47.412;9.730;2023-12-28T06:39:23;12.85;;;6.93;;
48317;SDS011;34127;47.412;9.730;2023-12-28T06:41:49;15.35;;;7.10;;
48317;SDS011;34127;47.412;9.730;2023-12-28T06:44:15;13.32;;;7.47;;
48317;SDS011;34127;47.412;9.730;2023-12-28T06:46:41;18.67;;;10.20;;
48317;SDS011;34127;47.412;9.730;2023-12-28T06:49:08;16.42;;;9.38;;
48317;SDS011;34127;47.412;9.730;2023-12-28T06:51:34;12.93;;;8.10;;
48317;SDS011;34127;47.412;9.730;2023-12-28T06:54:00;19.40;;;10.50;;
48317;SDS011;34127;47.412;9.730;2023-12-28T06:56:26;17.75;;;9.75;;
48317;SDS011;34127;47.412;9.730;2023-12-28T06:58:52;25.42;;;11.68;;
48317;SDS011;34127;47.412;9.730;2023-12-28T07:01:18;30.33;;;11.88;;
48317;SDS011;34127;47.412;9.730;2023-12-28T07:03:44;22.05;;;12.70;;
48317;SDS011;34127;47.412;9.730;2023-12-28T07:06:10;17.35;;;9.75;;
48317;SDS011;34127;47.412;9.730;2023-12-28T07:08:36;17.23;;;8.07;;
48317;SDS011;34127;47.412;9.730;2023-12-28T07:11:02;12.32;;;7.10;;
48317;SDS011;34127;47.412;9.730;2023-12-28T07:13:28;10.98;;;6.20;;
48317;SDS011;34127;47.412;9.730;2023-12-28T07:15:54;13.00;;;6.80;;
48317;SDS011;34127;47.412;9.730;2023-12-28T07:18:21;17.40;;;7.28;;
48317;SDS011;34127;47.412;9.730;2023-12-28T07:20:47;15.32;;;7.70;;
48317;SDS011;34127;47.412;9.730;2023-12-28T07:23:13;16.23;;;8.20;;
48317;SDS011;34127;47.412;9.730;2023-12-28T07:25:40;19.33;;;9.02;;
48317;SDS011;34127;47.412;9.730;2023-12-28T07:28:06;18.33;;;9.23;;
48317;SDS011;34127;47.412;9.730;2023-12-28T07:30:32;23.10;;;9.30;;
48317;SDS011;34127;47.412;9.730;2023-12-28T07:32:58;18.27;;;9.75;;
48317;SDS011;34127;47.412;9.730;2023-12-28T07:35:24;20.83;;;8.98;;
48317;SDS011;34127;47.412;9.730;2023-12-28T07:37:51;19.98;;;8.57;;
48317;SDS011;34127;47.412;9.730;2023-12-28T07:40:17;20.65;;;9.05;;
48317;SDS011;34127;47.412;9.730;2023-12-28T07:42:43;17.00;;;8.65;;
48317;SDS011;34127;47.412;9.730;2023-12-28T07:45:09;22.50;;;9.23;;
48317;SDS011;34127;47.412;9.730;2023-12-28T07:47:35;18.45;;;9.85;;
48317;SDS011;34127;47.412;9.730;2023-12-28T07:50:01;12.50;;;6.55;;
48317;SDS011;34127;47.412;9.730;2023-12-28T07:52:28;15.27;;;7.00;;
48317;SDS011;34127;47.412;9.730;2023-12-28T07:54:54;11.45;;;6.78;;
48317;SDS011;34127;47.412;9.730;2023-12-28T07:57:21;17.27;;;6.75;;
48317;SDS011;34127;47.412;9.730;2023-12-28T07:59:47;14.40;;;7.45;;
48317;SDS011;34127;47.412;9.730;2023-12-28T08:02:13;15.63;;;6.97;;
48317;SDS011;34127;47.412;9.730;2023-12-28T08:04:39;10.10;;;4.97;;
48317;SDS011;34127;47.412;9.730;2023-12-28T08:07:05;15.43;;;6.50;;
48317;SDS011;34127;47.412;9.730;2023-12-28T08:09:32;16.13;;;6.85;;
48317;SDS011;34127;47.412;9.730;2023-12-28T08:11:58;14.88;;;7.43;;
48317;SDS011;34127;47.412;9.730;2023-12-28T08:14:24;12.13;;;6.47;;
48317;SDS011;34127;47.412;9.730;2023-12-28T08:16:50;9.32;;;4.78;;
48317;SDS011;34127;47.412;9.730;2023-12-28T08:19:17;9.30;;;5.47;;
48317;SDS011;34127;47.412;9.730;2023-12-28T08:21:43;7.63;;;4.10;;
48317;SDS011;34127;47.412;9.730;2023-12-28T08:24:10;8.00;;;4.32;;
48317;SDS011;34127;47.412;9.730;2023-12-28T08:26:36;11.48;;;6.32;;
48317;SDS011;34127;47.412;9.730;2023-12-28T08:29:02;11.40;;;6.35;;
48317;SDS011;34127;47.412;9.730;2023-12-28T08:31:28;16.75;;;9.18;;
48317;SDS011;34127;47.412;9.730;2023-12-28T08:33:54;19.60;;;11.70;;
48317;SDS011;34127;47.412;9.730;2023-12-28T08:36:21;14.95;;;8.70;;
48317;SDS011;34127;47.412;9.730;2023-12-28T08:38:47;21.27;;;9.98;;
48317;SDS011;34127;47.412;9.730;2023-12-28T08:41:20;20.23;;;10.70;;
48317;SDS011;34127;47.412;9.730;2023-12-28T08:43:48;24.23;;;10.98;;
48317;SDS011;34127;47.412;9.730;2023-12-28T08:46:14;19.83;;;10.65;;
48317;SDS011;34127;47.412;9.730;2023-12-28T08:48:41;12.57;;;6.63;;
48317;SDS011;34127;47.412;9.730;2023-12-28T08:51:09;10.23;;;5.43;;
48317;SDS011;34127;47.412;9.730;2023-12-28T08:53:36;10.77;;;5.07;;
48317;SDS011;34127;47.412;9.730;2023-12-28T08:56:03;12.32;;;6.60;;
48317;SDS011;34127;47.412;9.730;2023-12-28T08:58:29;14.38;;;7.30;;
48317;SDS011;34127;47.412;9.730;2023-12-28T09:00:55;12.15;;;6.55;;
48317;SDS011;34127;47.412;9.730;2023-12-28T09:03:21;13.43;;;6.60;;
48317;SDS011;34127;47.412;9.730;2023-12-28T09:05:47;13.80;;;6.95;;
48317;SDS011;34127;47.412;9.730;2023-12-28T09:08:13;8.68;;;5.65;;
48317;SDS011;34127;47.412;9.730;2023-12-28T09:10:39;15.02;;;6.82;;
48317;SDS011;34127;47.412;9.730;2023-12-28T09:13:06;13.13;;;7.65;;
48317;SDS011;34127;47.412;9.730;2023-12-28T09:15:32;16.13;;;8.18;;
48317;SDS011;34127;47.412;9.730;2023-12-28T09:17:58;21.60;;;9.60;;
48317;SDS011;34127;47.412;9.730;2023-12-28T09:20:24;18.48;;;9.57;;
48317;SDS011;34127;47.412;9.730;2023-12-28T09:22:50;21.40;;;10.13;;
48317;SDS011;34127;47.412;9.730;2023-12-28T09:25:21;22.10;;;10.40;;
48317;SDS011;34127;47.412;9.730;2023-12-28T09:27:47;22.70;;;9.68;;
48317;SDS011;34127;47.412;9.730;2023-12-28T09:30:13;16.83;;;8.52;;
48317;SDS011;34127;47.412;9.730;2023-12-28T09:32:39;19.27;;;9.20;;
48317;SDS011;34127;47.412;9.730;2023-12-28T09:35:05;14.52;;;8.48;;
48317;SDS011;34127;47.412;9.730;2023-12-28T09:37:32;18.65;;;9.07;;
48317;SDS011;34127;47.412;9.730;2023-12-28T09:39:58;20.80;;;9.45;;
48317;SDS011;34127;47.412;9.730;2023-12-28T09:42:29;18.73;;;10.27;;
48317;SDS011;34127;47.412;9.730;2023-12-28T09:44:55;21.50;;;9.90;;
48317;SDS011;34127;47.412;9.730;2023-12-28T09:47:22;17.92;;;9.27;;
48317;SDS011;34127;47.412;9.730;2023-12-28T09:49:48;14.93;;;7.50;;
48317;SDS011;34127;47.412;9.730;2023-12-28T09:52:14;16.83;;;8.82;;
48317;SDS011;34127;47.412;9.730;2023-12-28T09:54:40;16.13;;;7.72;;
48317;SDS011;34127;47.412;9.730;2023-12-28T09:57:07;17.20;;;8.48;;
48317;SDS011;34127;47.412;9.730;2023-12-28T09:59:33;15.45;;;8.13;;
48317;SDS011;34127;47.412;9.730;2023-12-28T10:02:00;14.48;;;7.50;;
48317;SDS011;34127;47.412;9.730;2023-12-28T10:04:28;14.32;;;7.28;;
48317;SDS011;34127;47.412;9.730;2023-12-28T10:06:54;16.20;;;7.53;;
48317;SDS011;34127;47.412;9.730;2023-12-28T10:09:21;14.13;;;7.05;;
48317;SDS011;34127;47.412;9.730;2023-12-28T10:11:47;15.48;;;7.40;;
48317;SDS011;34127;47.412;9.730;2023-12-28T10:14:13;15.48;;;7.53;;
48317;SDS011;34127;47.412;9.730;2023-12-28T10:16:42;13.30;;;6.50;;
48317;SDS011;34127;47.412;9.730;2023-12-28T10:19:08;11.95;;;5.78;;
48317;SDS011;34127;47.412;9.730;2023-12-28T10:21:34;10.98;;;5.85;;
48317;SDS011;34127;47.412;9.730;2023-12-28T10:24:01;12.82;;;5.60;;
48317;SDS011;34127;47.412;9.730;2023-12-28T10:26:28;9.68;;;4.60;;
48317;SDS011;34127;47.412;9.730;2023-12-28T10:29:00;11.48;;;5.03;;
48317;SDS011;34127;47.412;9.730;2023-12-28T10:31:28;10.77;;;5.38;;
48317;SDS011;34127;47.412;9.730;2023-12-28T10:33:57;12.65;;;4.80;;
48317;SDS011;34127;47.412;9.730;2023-12-28T10:36:24;11.52;;;5.15;;
48317;SDS011;34127;47.412;9.730;2023-12-28T10:38:52;8.27;;;4.90;;
48317;SDS011;34127;47.412;9.730;2023-12-28T10:41:19;6.85;;;4.18;;
48317;SDS011;34127;47.412;9.730;2023-12-28T10:44:02;10.75;;;4.80;;
48317;SDS011;34127;47.412;9.730;2023-12-28T10:46:30;9.82;;;5.75;;
48317;SDS011;34127;47.412;9.730;2023-12-28T10:49:09;11.18;;;5.45;;
48317;SDS011;34127;47.412;9.730;2023-12-28T10:51:37;11.38;;;5.18;;
48317;SDS011;34127;47.412;9.730;2023-12-28T10:54:12;8.75;;;5.03;;
48317;SDS011;34127;47.412;9.730;2023-12-28T10:56:47;12.75;;;6.22;;
48317;SDS011;34127;47.412;9.730;2023-12-28T11:02:01;8.57;;;5.30;;
48317;SDS011;34127;47.412;9.730;2023-12-28T11:06:55;10.35;;;5.72;;
48317;SDS011;34127;47.412;9.730;2023-12-28T11:09:22;10.65;;;5.40;;
48317;SDS011;34127;47.412;9.730;2023-12-28T11:11:50;10.13;;;5.25;;
48317;SDS011;34127;47.412;9.730;2023-12-28T11:14:17;10.60;;;5.60;;
48317;SDS011;34127;47.412;9.730;2023-12-28T11:16:43;13.80;;;5.75;;
48317;SDS011;34127;47.412;9.730;2023-12-28T11:19:10;19.33;;;7.18;;
48317;SDS011;34127;47.412;9.730;2023-12-28T11:21:37;12.88;;;6.35;;
48317;SDS011;34127;47.412;9.730;2023-12-28T11:24:04;15.23;;;7.97;;
48317;SDS011;34127;47.412;9.730;2023-12-28T11:26:30;19.27;;;11.63;;
48317;SDS011;34127;47.412;9.730;2023-12-28T11:29:00;15.20;;;7.93;;
48317;SDS011;34127;47.412;9.730;2023-12-28T11:31:27;15.65;;;8.32;;
48317;SDS011;34127;47.412;9.730;2023-12-28T11:33:53;17.58;;;9.32;;
48317;SDS011;34127;47.412;9.730;2023-12-28T11:36:24;11.30;;;6.85;;
48317;SDS011;34127;47.412;9.730;2023-12-28T11:38:53;15.45;;;6.93;;
48317;SDS011;34127;47.412;9.730;2023-12-28T11:41:22;11.18;;;6.50;;
48317;SDS011;34127;47.412;9.730;2023-12-28T11:43:51;10.60;;;5.78;;
48317;SDS011;34127;47.412;9.730;2023-12-28T11:46:17;10.68;;;5.43;;
48317;SDS011;34127;47.412;9.730;2023-12-28T11:48:44;9.32;;;4.93;;
48317;SDS011;34127;47.412;9.730;2023-12-28T11:51:11;6.95;;;3.55;;
48317;SDS011;34127;47.412;9.730;2023-12-28T11:53:37;8.27;;;4.07;;
48317;SDS011;34127;47.412;9.730;2023-12-28T11:56:04;7.40;;;3.70;;
48317;SDS011;34127;47.412;9.730;2023-12-28T11:58:34;7.35;;;3.70;;
48317;SDS011;34127;47.412;9.730;2023-12-28T12:01:01;10.27;;;4.32;;
48317;SDS011;34127;47.412;9.730;2023-12-28T12:03:27;7.35;;;4.32;;
48317;SDS011;34127;47.412;9.730;2023-12-28T12:05:57;10.93;;;4.30;;
48317;SDS011;34127;47.412;9.730;2023-12-28T12:08:24;12.93;;;7.18;;
48317;SDS011;34127;47.412;9.730;2023-12-28T12:11:00;10.68;;;6.43;;
48317;SDS011;34127;47.412;9.730;2023-12-28T12:13:28;11.05;;;7.30;;
48317;SDS011;34127;47.412;9.730;2023-12-28T12:15:55;15.20;;;7.72;;
48317;SDS011;34127;47.412;9.730;2023-12-28T12:18:22;14.93;;;7.43;;
48317;SDS011;34127;47.412;9.730;2023-12-28T12:20:48;12.93;;;8.43;;
48317;SDS011;34127;47.412;9.730;2023-12-28T12:23:14;13.95;;;8.00;;
48317;SDS011;34127;47.412;9.730;2023-12-28T12:25:41;17.63;;;9.25;;
48317;SDS011;34127;47.412;9.730;2023-12-28T12:28:10;13.15;;;8.68;;
48317;SDS011;34127;47.412;9.730;2023-12-28T12:30:36;12.52;;;8.15;;
48317;SDS011;34127;47.412;9.730;2023-12-28T12:33:02;13.77;;;8.18;;
48317;SDS011;34127;47.412;9.730;2023-12-28T12:35:28;13.73;;;8.32;;
48317;SDS011;34127;47.412;9.730;2023-12-28T12:37:55;15.73;;;7.97;;
48317;SDS011;34127;47.412;9.730;2023-12-28T12:40:21;18.10;;;8.95;;
48317;SDS011;34127;47.412;9.730;2023-12-28T12:42:54;17.73;;;9.25;;
48317;SDS011;34127;47.412;9.730;2023-12-28T12:45:20;13.70;;;9.25;;
48317;SDS011;34127;47.412;9.730;2023-12-28T12:47:47;15.93;;;8.85;;
48317;SDS011;34127;47.412;9.730;2023-12-28T12:50:14;16.02;;;9.50;;
48317;SDS011;34127;47.412;9.730;2023-12-28T12:52:41;14.18;;;9.35;;
48317;SDS011;34127;47.412;9.730;2023-12-28T12:55:11;12.88;;;9.10;;
48317;SDS011;34127;47.412;9.730;2023-12-28T12:57:39;17.35;;;9.55;;
48317;SDS011;34127;47.412;9.730;2023-12-28T13:00:05;19.58;;;9.95;;
48317;SDS011;34127;47.412;9.730;2023-12-28T13:02:34;19.27;;;10.88;;
48317;SDS011;34127;47.412;9.730;2023-12-28T13:05:03;22.13;;;11.45;;
48317;SDS011;34127;47.412;9.730;2023-12-28T13:07:30;24.50;;;10.68;;
48317;SDS011;34127;47.412;9.730;2023-12-28T13:09:57;16.70;;;8.85;;
48317;SDS011;34127;47.412;9.730;2023-12-28T13:12:23;15.73;;;8.90;;
48317;SDS011;34127;47.412;9.730;2023-12-28T13:14:50;14.98;;;8.65;;
48317;SDS011;34127;47.412;9.730;2023-12-28T13:17:16;18.90;;;9.65;;
48317;SDS011;34127;47.412;9.730;2023-12-28T13:19:42;17.20;;;9.18;;
48317;SDS011;34127;47.412;9.730;2023-12-28T13:22:09;18.58;;;10.40;;
48317;SDS011;34127;47.412;9.730;2023-12-28T13:24:35;22.50;;;10.48;;
48317;SDS011;34127;47.412;9.730;2023-12-28T13:27:01;19.65;;;10.23;;
48317;SDS011;34127;47.412;9.730;2023-12-28T13:29:28;24.58;;;10.32;;
48317;SDS011;34127;47.412;9.730;2023-12-28T13:31:55;19.45;;;9.30;;
48317;SDS011;34127;47.412;9.730;2023-12-28T13:34:21;20.35;;;10.63;;
48317;SDS011;34127;47.412;9.730;2023-12-28T13:36:48;20.92;;;9.68;;
48317;SDS011;34127;47.412;9.730;2023-12-28T13:39:14;18.33;;;9.02;;
48317;SDS011;34127;47.412;9.730;2023-12-28T13:41:41;19.27;;;9.80;;
48317;SDS011;34127;47.412;9.730;2023-12-28T13:44:07;20.08;;;9.60;;
48317;SDS011;34127;47.412;9.730;2023-12-28T13:46:37;17.85;;;9.85;;
48317;SDS011;34127;47.412;9.730;2023-12-28T13:49:04;18.92;;;10.20;;
48317;SDS011;34127;47.412;9.730;2023-12-28T13:51:31;16.10;;;9.40;;
48317;SDS011;34127;47.412;9.730;2023-12-28T13:53:57;19.00;;;9.55;;
48317;SDS011;34127;47.412;9.730;2023-12-28T13:56:23;18.92;;;9.23;;
48317;SDS011;34127;47.412;9.730;2023-12-28T13:58:50;18.83;;;9.15;;
48317;SDS011;34127;47.412;9.730;2023-12-28T14:01:16;17.38;;;10.13;;
48317;SDS011;34127;47.412;9.730;2023-12-28T14:03:42;17.13;;;9.95;;
48317;SDS011;34127;47.412;9.730;2023-12-28T14:06:10;18.95;;;10.02;;
48317;SDS011;34127;47.412;9.730;2023-12-28T14:08:37;25.33;;;10.57;;
48317;SDS011;34127;47.412;9.730;2023-12-28T14:11:03;22.00;;;9.40;;
48317;SDS011;34127;47.412;9.730;2023-12-28T14:13:29;22.98;;;9.80;;
48317;SDS011;34127;47.412;9.730;2023-12-28T14:15:56;20.08;;;9.68;;
48317;SDS011;34127;47.412;9.730;2023-12-28T14:18:22;23.48;;;11.30;;
48317;SDS011;34127;47.412;9.730;2023-12-28T14:20:48;21.55;;;11.90;;
48317;SDS011;34127;47.412;9.730;2023-12-28T14:23:14;23.42;;;12.32;;
48317;SDS011;34127;47.412;9.730;2023-12-28T14:25:41;24.60;;;12.82;;
48317;SDS011;34127;47.412;9.730;2023-12-28T14:28:07;29.80;;;13.00;;
48317;SDS011;34127;47.412;9.730;2023-12-28T14:30:33;21.85;;;12.13;;
48317;SDS011;34127;47.412;9.730;2023-12-28T14:33:00;20.77;;;12.18;;
48317;SDS011;34127;47.412;9.730;2023-12-28T14:35:26;19.35;;;11.57;;
48317;SDS011;34127;47.412;9.730;2023-12-28T14:37:53;19.98;;;9.77;;
48317;SDS011;34127;47.412;9.730;2023-12-28T14:40:19;16.25;;;9.35;;